sensor_id;sensor_type;location;lat;lon;timestamp;P1;durP1;ratioP1;P2;durP2;ratioP2
77362;SDS011;66428;47.322;9.432;2023-12-22T00:00:13;0.70;;;0.40;;
77362;SDS011;66428;47.322;9.432;2023-12-22T00:02:41;0.75;;;0.60;;
77362;SDS011;66428;47.322;9.432;2023-12-22T00:05:08;0.63;;;0.47;;
77362;SDS011;66428;47.322;9.432;2023-12-22T00:07:37;0.82;;;0.45;;
77362;SDS011;66428;47.322;9.432;2023-12-22T00:10:05;1.13;;;0.60;;
77362;SDS011;66428;47.322;9.432;2023-12-22T00:12:33;2.85;;;0.80;;
77362;SDS011;66428;47.322;9.432;2023-12-22T00:15:04;1.52;;;0.75;;
77362;SDS011;66428;47.322;9.432;2023-12-22T00:17:34;2.50;;;0.50;;
77362;SDS011;66428;47.322;9.432;2023-12-22T00:20:04;0.80;;;0.60;;
77362;SDS011;66428;47.322;9.432;2023-12-22T00:22:32;1.13;;;0.47;;
77362;SDS011;66428;47.322;9.432;2023-12-22T00:25:02;0.30;;;0.30;;
77362;SDS011;66428;47.322;9.432;2023-12-22T00:27:29;1.75;;;0.55;;
77362;SDS011;66428;47.322;9.432;2023-12-22T00:29:57;1.05;;;0.60;;
77362;SDS011;66428;47.322;9.432;2023-12-22T00:32:27;0.70;;;0.45;;
77362;SDS011;66428;47.322;9.432;2023-12-22T00:34:55;0.43;;;0.43;;
77362;SDS011;66428;47.322;9.432;2023-12-22T00:37:25;2.72;;;0.57;;
77362;SDS011;66428;47.322;9.432;2023-12-22T00:39:52;1.35;;;1.00;;
77362;SDS011;66428;47.322;9.432;2023-12-22T00:42:24;1.58;;;0.60;;
77362;SDS011;66428;47.322;9.432;2023-12-22T00:44:53;2.33;;;1.00;;
77362;SDS011;66428;47.322;9.432;2023-12-22T00:47:20;3.33;;;1.42;;
77362;SDS011;66428;47.322;9.432;2023-12-22T00:49:48;2.60;;;0.93;;
77362;SDS011;66428;47.322;9.432;2023-12-22T00:52:16;1.02;;;0.73;;
77362;SDS011;66428;47.322;9.432;2023-12-22T00:54:44;1.90;;;0.88;;
77362;SDS011;66428;47.322;9.432;2023-12-22T00:57:13;2.25;;;0.65;;
77362;SDS011;66428;47.322;9.432;2023-12-22T00:59:43;1.27;;;0.70;;
77362;SDS011;66428;47.322;9.432;2023-12-22T01:02:16;1.48;;;0.45;;
77362;SDS011;66428;47.322;9.432;2023-12-22T01:04:44;1.60;;;0.63;;
77362;SDS011;66428;47.322;9.432;2023-12-22T01:07:12;0.70;;;0.45;;
77362;SDS011;66428;47.322;9.432;2023-12-22T01:09:40;0.88;;;0.63;;
77362;SDS011;66428;47.322;9.432;2023-12-22T01:12:09;2.80;;;1.10;;
77362;SDS011;66428;47.322;9.432;2023-12-22T01:14:40;1.33;;;0.60;;
77362;SDS011;66428;47.322;9.432;2023-12-22T01:17:09;0.70;;;0.40;;
77362;SDS011;66428;47.322;9.432;2023-12-22T01:19:37;1.67;;;0.68;;
77362;SDS011;66428;47.322;9.432;2023-12-22T01:22:05;1.55;;;0.68;;
77362;SDS011;66428;47.322;9.432;2023-12-22T01:24:35;1.63;;;0.60;;
77362;SDS011;66428;47.322;9.432;2023-12-22T01:27:06;2.22;;;0.80;;
77362;SDS011;66428;47.322;9.432;2023-12-22T01:29:36;1.85;;;1.00;;
77362;SDS011;66428;47.322;9.432;2023-12-22T01:32:04;2.28;;;0.75;;
77362;SDS011;66428;47.322;9.432;2023-12-22T01:34:33;3.40;;;0.90;;
77362;SDS011;66428;47.322;9.432;2023-12-22T01:37:03;0.98;;;0.63;;
77362;SDS011;66428;47.322;9.432;2023-12-22T01:39:31;3.38;;;1.20;;
77362;SDS011;66428;47.322;9.432;2023-12-22T01:41:58;4.35;;;1.17;;
77362;SDS011;66428;47.322;9.432;2023-12-22T01:44:28;3.47;;;0.98;;
77362;SDS011;66428;47.322;9.432;2023-12-22T01:46:56;0.77;;;0.50;;
77362;SDS011;66428;47.322;9.432;2023-12-22T01:49:26;2.75;;;0.77;;
77362;SDS011;66428;47.322;9.432;2023-12-22T01:51:57;1.90;;;0.93;;
77362;SDS011;66428;47.322;9.432;2023-12-22T01:54:27;1.95;;;0.55;;
77362;SDS011;66428;47.322;9.432;2023-12-22T01:56:55;0.93;;;0.60;;
77362;SDS011;66428;47.322;9.432;2023-12-22T01:59:23;1.38;;;0.70;;
77362;SDS011;66428;47.322;9.432;2023-12-22T02:01:51;1.02;;;0.50;;
77362;SDS011;66428;47.322;9.432;2023-12-22T02:04:19;3.13;;;0.90;;
77362;SDS011;66428;47.322;9.432;2023-12-22T02:06:50;1.67;;;0.90;;
77362;SDS011;66428;47.322;9.432;2023-12-22T02:09:19;0.57;;;0.40;;
77362;SDS011;66428;47.322;9.432;2023-12-22T02:11:47;2.03;;;0.43;;
77362;SDS011;66428;47.322;9.432;2023-12-22T02:14:15;3.03;;;0.57;;
77362;SDS011;66428;47.322;9.432;2023-12-22T02:16:44;0.88;;;0.52;;
77362;SDS011;66428;47.322;9.432;2023-12-22T02:19:19;1.10;;;0.40;;
77362;SDS011;66428;47.322;9.432;2023-12-22T02:22:04;0.52;;;0.50;;
77362;SDS011;66428;47.322;9.432;2023-12-22T02:24:39;2.78;;;0.40;;
77362;SDS011;66428;47.322;9.432;2023-12-22T02:27:12;1.33;;;0.60;;
77362;SDS011;66428;47.322;9.432;2023-12-22T02:29:46;1.20;;;0.60;;
77362;SDS011;66428;47.322;9.432;2023-12-22T02:32:17;0.55;;;0.40;;
77362;SDS011;66428;47.322;9.432;2023-12-22T02:34:48;0.40;;;0.40;;
77362;SDS011;66428;47.322;9.432;2023-12-22T02:37:16;0.70;;;0.38;;
77362;SDS011;66428;47.322;9.432;2023-12-22T02:39:49;0.43;;;0.30;;
77362;SDS011;66428;47.322;9.432;2023-12-22T02:42:17;0.73;;;0.50;;
77362;SDS011;66428;47.322;9.432;2023-12-22T02:44:46;1.55;;;0.70;;
77362;SDS011;66428;47.322;9.432;2023-12-22T02:47:13;0.88;;;0.43;;
77362;SDS011;66428;47.322;9.432;2023-12-22T02:49:41;1.85;;;0.85;;
77362;SDS011;66428;47.322;9.432;2023-12-22T02:52:11;2.88;;;0.88;;
77362;SDS011;66428;47.322;9.432;2023-12-22T02:54:41;3.95;;;0.70;;
77362;SDS011;66428;47.322;9.432;2023-12-22T02:57:10;2.42;;;0.90;;
77362;SDS011;66428;47.322;9.432;2023-12-22T02:59:38;3.17;;;1.10;;
77362;SDS011;66428;47.322;9.432;2023-12-22T03:02:08;6.22;;;0.75;;
77362;SDS011;66428;47.322;9.432;2023-12-22T03:04:36;2.88;;;1.08;;
77362;SDS011;66428;47.322;9.432;2023-12-22T03:07:04;1.33;;;0.68;;
77362;SDS011;66428;47.322;9.432;2023-12-22T03:09:34;2.42;;;0.98;;
77362;SDS011;66428;47.322;9.432;2023-12-22T03:12:05;3.88;;;0.65;;
77362;SDS011;66428;47.322;9.432;2023-12-22T03:14:36;4.00;;;0.93;;
77362;SDS011;66428;47.322;9.432;2023-12-22T03:17:05;2.67;;;0.90;;
77362;SDS011;66428;47.322;9.432;2023-12-22T03:19:33;2.10;;;0.75;;
77362;SDS011;66428;47.322;9.432;2023-12-22T03:22:01;1.05;;;0.57;;
77362;SDS011;66428;47.322;9.432;2023-12-22T03:24:29;4.35;;;1.02;;
77362;SDS011;66428;47.322;9.432;2023-12-22T03:26:56;2.08;;;0.60;;
77362;SDS011;66428;47.322;9.432;2023-12-22T03:29:24;1.17;;;0.82;;
77362;SDS011;66428;47.322;9.432;2023-12-22T03:31:56;1.25;;;0.52;;
77362;SDS011;66428;47.322;9.432;2023-12-22T03:34:26;1.77;;;0.40;;
77362;SDS011;66428;47.322;9.432;2023-12-22T03:36:54;1.52;;;0.57;;
77362;SDS011;66428;47.322;9.432;2023-12-22T03:39:21;0.60;;;0.40;;
77362;SDS011;66428;47.322;9.432;2023-12-22T03:41:51;0.63;;;0.40;;
77362;SDS011;66428;47.322;9.432;2023-12-22T03:44:21;1.63;;;0.50;;
77362;SDS011;66428;47.322;9.432;2023-12-22T03:46:52;0.88;;;0.47;;
77362;SDS011;66428;47.322;9.432;2023-12-22T03:49:21;0.20;;;0.20;;
77362;SDS011;66428;47.322;9.432;2023-12-22T03:51:49;0.20;;;0.20;;
77362;SDS011;66428;47.322;9.432;2023-12-22T03:54:17;0.50;;;0.30;;
77362;SDS011;66428;47.322;9.432;2023-12-22T03:56:47;0.28;;;0.28;;
77362;SDS011;66428;47.322;9.432;2023-12-22T03:59:14;0.77;;;0.32;;
77362;SDS011;66428;47.322;9.432;2023-12-22T04:01:49;0.50;;;0.30;;
77362;SDS011;66428;47.322;9.432;2023-12-22T04:04:18;0.70;;;0.38;;
77362;SDS011;66428;47.322;9.432;2023-12-22T04:06:47;1.13;;;0.40;;
77362;SDS011;66428;47.322;9.432;2023-12-22T04:09:15;1.27;;;0.40;;
77362;SDS011;66428;47.322;9.432;2023-12-22T04:11:46;1.58;;;0.70;;
77362;SDS011;66428;47.322;9.432;2023-12-22T04:14:16;3.35;;;0.65;;
77362;SDS011;66428;47.322;9.432;2023-12-22T04:16:48;0.88;;;0.45;;
77362;SDS011;66428;47.322;9.432;2023-12-22T04:19:17;3.08;;;0.90;;
77362;SDS011;66428;47.322;9.432;2023-12-22T04:21:48;2.03;;;0.95;;
77362;SDS011;66428;47.322;9.432;2023-12-22T04:24:16;3.47;;;1.05;;
77362;SDS011;66428;47.322;9.432;2023-12-22T04:26:44;3.45;;;1.00;;
77362;SDS011;66428;47.322;9.432;2023-12-22T04:29:12;2.00;;;1.10;;
77362;SDS011;66428;47.322;9.432;2023-12-22T04:31:41;4.15;;;1.10;;
77362;SDS011;66428;47.322;9.432;2023-12-22T04:34:12;1.67;;;1.08;;
77362;SDS011;66428;47.322;9.432;2023-12-22T04:36:42;6.47;;;1.45;;
77362;SDS011;66428;47.322;9.432;2023-12-22T04:39:12;3.30;;;0.95;;
77362;SDS011;66428;47.322;9.432;2023-12-22T04:41:42;3.95;;;0.88;;
77362;SDS011;66428;47.322;9.432;2023-12-22T04:44:09;1.50;;;1.00;;
77362;SDS011;66428;47.322;9.432;2023-12-22T04:46:37;4.30;;;1.33;;
77362;SDS011;66428;47.322;9.432;2023-12-22T04:49:05;2.15;;;1.02;;
77362;SDS011;66428;47.322;9.432;2023-12-22T04:51:36;1.42;;;0.82;;
77362;SDS011;66428;47.322;9.432;2023-12-22T04:54:06;6.68;;;1.85;;
77362;SDS011;66428;47.322;9.432;2023-12-22T04:56:35;4.10;;;1.52;;
77362;SDS011;66428;47.322;9.432;2023-12-22T04:59:05;5.22;;;1.45;;
77362;SDS011;66428;47.322;9.432;2023-12-22T05:01:33;3.95;;;0.98;;
77362;SDS011;66428;47.322;9.432;2023-12-22T05:04:01;4.90;;;1.20;;
77362;SDS011;66428;47.322;9.432;2023-12-22T05:06:31;4.75;;;1.33;;
77362;SDS011;66428;47.322;9.432;2023-12-22T05:08:59;3.88;;;1.50;;
77362;SDS011;66428;47.322;9.432;2023-12-22T05:11:26;2.30;;;1.17;;
77362;SDS011;66428;47.322;9.432;2023-12-22T05:13:58;4.15;;;1.63;;
77362;SDS011;66428;47.322;9.432;2023-12-22T05:16:27;3.75;;;1.08;;
77362;SDS011;66428;47.322;9.432;2023-12-22T05:18:59;4.00;;;2.03;;
77362;SDS011;66428;47.322;9.432;2023-12-22T05:21:27;4.13;;;1.33;;
77362;SDS011;66428;47.322;9.432;2023-12-22T05:23:56;5.40;;;1.02;;
77362;SDS011;66428;47.322;9.432;2023-12-22T05:26:24;2.58;;;0.88;;
77362;SDS011;66428;47.322;9.432;2023-12-22T05:28:57;2.88;;;1.10;;
77362;SDS011;66428;47.322;9.432;2023-12-22T05:31:25;7.60;;;1.73;;
77362;SDS011;66428;47.322;9.432;2023-12-22T05:33:56;2.67;;;1.10;;
77362;SDS011;66428;47.322;9.432;2023-12-22T05:36:25;2.97;;;1.13;;
77362;SDS011;66428;47.322;9.432;2023-12-22T05:38:52;5.00;;;1.00;;
77362;SDS011;66428;47.322;9.432;2023-12-22T05:41:21;4.72;;;1.48;;
77362;SDS011;66428;47.322;9.432;2023-12-22T05:43:49;3.60;;;1.40;;
77362;SDS011;66428;47.322;9.432;2023-12-22T05:46:21;2.22;;;1.10;;
77362;SDS011;66428;47.322;9.432;2023-12-22T05:48:48;8.00;;;1.30;;
77362;SDS011;66428;47.322;9.432;2023-12-22T05:51:20;2.08;;;0.85;;
77362;SDS011;66428;47.322;9.432;2023-12-22T05:53:48;5.00;;;1.52;;
77362;SDS011;66428;47.322;9.432;2023-12-22T05:56:18;4.40;;;1.05;;
77362;SDS011;66428;47.322;9.432;2023-12-22T05:58:47;3.70;;;1.52;;
77362;SDS011;66428;47.322;9.432;2023-12-22T06:01:15;4.90;;;1.70;;
77362;SDS011;66428;47.322;9.432;2023-12-22T06:03:48;4.70;;;1.42;;
77362;SDS011;66428;47.322;9.432;2023-12-22T06:06:18;8.20;;;1.40;;
77362;SDS011;66428;47.322;9.432;2023-12-22T06:08:46;4.40;;;1.33;;
77362;SDS011;66428;47.322;9.432;2023-12-22T06:11:14;4.47;;;1.17;;
77362;SDS011;66428;47.322;9.432;2023-12-22T06:13:41;4.20;;;1.20;;
77362;SDS011;66428;47.322;9.432;2023-12-22T06:16:13;5.40;;;1.27;;
77362;SDS011;66428;47.322;9.432;2023-12-22T06:18:41;7.25;;;1.65;;
77362;SDS011;66428;47.322;9.432;2023-12-22T06:21:10;4.65;;;1.30;;
77362;SDS011;66428;47.322;9.432;2023-12-22T06:23:38;5.25;;;1.50;;
77362;SDS011;66428;47.322;9.432;2023-12-22T06:26:09;9.10;;;1.40;;
77362;SDS011;66428;47.322;9.432;2023-12-22T06:28:38;8.35;;;1.80;;
77362;SDS011;66428;47.322;9.432;2023-12-22T06:31:07;5.85;;;1.60;;
77362;SDS011;66428;47.322;9.432;2023-12-22T06:33:35;4.95;;;1.65;;
77362;SDS011;66428;47.322;9.432;2023-12-22T06:36:03;5.63;;;1.13;;
77362;SDS011;66428;47.322;9.432;2023-12-22T06:38:32;5.40;;;1.77;;
77362;SDS011;66428;47.322;9.432;2023-12-22T06:41:02;7.43;;;2.63;;
77362;SDS011;66428;47.322;9.432;2023-12-22T06:43:30;6.43;;;1.60;;
77362;SDS011;66428;47.322;9.432;2023-12-22T06:45:58;7.35;;;1.33;;
77362;SDS011;66428;47.322;9.432;2023-12-22T06:48:26;2.88;;;1.02;;
77362;SDS011;66428;47.322;9.432;2023-12-22T06:50:55;5.22;;;1.90;;
77362;SDS011;66428;47.322;9.432;2023-12-22T06:53:23;6.15;;;1.90;;
77362;SDS011;66428;47.322;9.432;2023-12-22T06:55:53;5.43;;;1.50;;
77362;SDS011;66428;47.322;9.432;2023-12-22T06:58:21;6.10;;;1.40;;
77362;SDS011;66428;47.322;9.432;2023-12-22T07:00:52;5.32;;;1.60;;
77362;SDS011;66428;47.322;9.432;2023-12-22T07:03:22;6.63;;;1.08;;
77362;SDS011;66428;47.322;9.432;2023-12-22T07:05:50;4.90;;;1.38;;
77362;SDS011;66428;47.322;9.432;2023-12-22T07:08:18;6.18;;;1.95;;
77362;SDS011;66428;47.322;9.432;2023-12-22T07:10:48;8.52;;;2.80;;
77362;SDS011;66428;47.322;9.432;2023-12-22T07:13:17;9.30;;;3.03;;
77362;SDS011;66428;47.322;9.432;2023-12-22T07:15:47;8.23;;;2.28;;
77362;SDS011;66428;47.322;9.432;2023-12-22T07:18:16;7.38;;;2.50;;
77362;SDS011;66428;47.322;9.432;2023-12-22T07:20:44;4.07;;;1.65;;
77362;SDS011;66428;47.322;9.432;2023-12-22T07:23:14;7.97;;;2.17;;
77362;SDS011;66428;47.322;9.432;2023-12-22T07:25:42;5.93;;;1.48;;
77362;SDS011;66428;47.322;9.432;2023-12-22T07:28:13;8.95;;;2.83;;
77362;SDS011;66428;47.322;9.432;2023-12-22T07:30:44;3.50;;;1.40;;
77362;SDS011;66428;47.322;9.432;2023-12-22T07:33:14;8.23;;;1.70;;
77362;SDS011;66428;47.322;9.432;2023-12-22T07:35:42;7.53;;;1.42;;
77362;SDS011;66428;47.322;9.432;2023-12-22T07:38:13;6.93;;;1.67;;
77362;SDS011;66428;47.322;9.432;2023-12-22T07:40:43;6.95;;;1.30;;
77362;SDS011;66428;47.322;9.432;2023-12-22T07:43:14;8.18;;;2.00;;
77362;SDS011;66428;47.322;9.432;2023-12-22T07:45:45;3.00;;;1.20;;
77362;SDS011;66428;47.322;9.432;2023-12-22T07:48:14;3.38;;;1.30;;
77362;SDS011;66428;47.322;9.432;2023-12-22T07:50:42;6.38;;;2.17;;
77362;SDS011;66428;47.322;9.432;2023-12-22T07:53:10;6.95;;;2.20;;
77362;SDS011;66428;47.322;9.432;2023-12-22T07:55:38;7.30;;;1.80;;
77362;SDS011;66428;47.322;9.432;2023-12-22T07:58:06;1.98;;;1.10;;
77362;SDS011;66428;47.322;9.432;2023-12-22T08:00:33;9.70;;;1.95;;
77362;SDS011;66428;47.322;9.432;2023-12-22T08:03:02;4.90;;;1.05;;
77362;SDS011;66428;47.322;9.432;2023-12-22T08:05:30;3.15;;;1.30;;
77362;SDS011;66428;47.322;9.432;2023-12-22T08:08:02;3.88;;;1.13;;
77362;SDS011;66428;47.322;9.432;2023-12-22T08:10:29;5.68;;;1.20;;
77362;SDS011;66428;47.322;9.432;2023-12-22T08:12:57;5.05;;;1.60;;
77362;SDS011;66428;47.322;9.432;2023-12-22T08:15:25;3.85;;;1.40;;
77362;SDS011;66428;47.322;9.432;2023-12-22T08:18:04;6.78;;;2.97;;
77362;SDS011;66428;47.322;9.432;2023-12-22T08:20:34;4.57;;;1.95;;
77362;SDS011;66428;47.322;9.432;2023-12-22T08:28:10;5.93;;;1.23;;
77362;SDS011;66428;47.322;9.432;2023-12-22T08:30:39;2.83;;;1.52;;
77362;SDS011;66428;47.322;9.432;2023-12-22T08:33:08;2.83;;;0.93;;
77362;SDS011;66428;47.322;9.432;2023-12-22T08:35:36;2.83;;;0.90;;
77362;SDS011;66428;47.322;9.432;2023-12-22T08:38:04;3.13;;;1.38;;
77362;SDS011;66428;47.322;9.432;2023-12-22T08:40:32;2.22;;;0.80;;
77362;SDS011;66428;47.322;9.432;2023-12-22T08:43:01;1.75;;;1.25;;
77362;SDS011;66428;47.322;9.432;2023-12-22T08:45:29;3.53;;;0.70;;
77362;SDS011;66428;47.322;9.432;2023-12-22T08:47:59;7.40;;;1.08;;
77362;SDS011;66428;47.322;9.432;2023-12-22T08:50:30;3.50;;;1.48;;
77362;SDS011;66428;47.322;9.432;2023-12-22T08:52:58;5.32;;;1.98;;
77362;SDS011;66428;47.322;9.432;2023-12-22T08:55:28;3.45;;;1.95;;
77362;SDS011;66428;47.322;9.432;2023-12-22T08:57:56;3.15;;;1.42;;
77362;SDS011;66428;47.322;9.432;2023-12-22T09:00:28;2.40;;;0.90;;
77362;SDS011;66428;47.322;9.432;2023-12-22T09:02:56;3.17;;;1.30;;
77362;SDS011;66428;47.322;9.432;2023-12-22T09:05:26;3.35;;;1.48;;
77362;SDS011;66428;47.322;9.432;2023-12-22T09:07:55;3.75;;;1.42;;
77362;SDS011;66428;47.322;9.432;2023-12-22T09:10:23;2.97;;;1.00;;
77362;SDS011;66428;47.322;9.432;2023-12-22T09:12:51;1.98;;;0.90;;
77362;SDS011;66428;47.322;9.432;2023-12-22T09:15:21;2.47;;;0.70;;
77362;SDS011;66428;47.322;9.432;2023-12-22T09:17:49;1.52;;;0.75;;
77362;SDS011;66428;47.322;9.432;2023-12-22T09:20:18;2.88;;;1.42;;
77362;SDS011;66428;47.322;9.432;2023-12-22T09:22:46;3.95;;;1.10;;
77362;SDS011;66428;47.322;9.432;2023-12-22T09:25:18;6.28;;;4.18;;
77362;SDS011;66428;47.322;9.432;2023-12-22T09:27:46;4.40;;;3.22;;
77362;SDS011;66428;47.322;9.432;2023-12-22T09:30:14;4.43;;;1.67;;
77362;SDS011;66428;47.322;9.432;2023-12-22T09:32:42;3.85;;;1.80;;
77362;SDS011;66428;47.322;9.432;2023-12-22T09:35:10;3.38;;;1.17;;
77362;SDS011;66428;47.322;9.432;2023-12-22T09:37:40;2.47;;;1.17;;
77362;SDS011;66428;47.322;9.432;2023-12-22T09:40:09;6.80;;;1.45;;
77362;SDS011;66428;47.322;9.432;2023-12-22T09:42:38;1.98;;;1.10;;
77362;SDS011;66428;47.322;9.432;2023-12-22T09:45:07;2.33;;;1.13;;
77362;SDS011;66428;47.322;9.432;2023-12-22T09:47:35;2.97;;;1.85;;
77362;SDS011;66428;47.322;9.432;2023-12-22T09:50:04;5.38;;;1.77;;
77362;SDS011;66428;47.322;9.432;2023-12-22T09:52:32;1.85;;;1.02;;
77362;SDS011;66428;47.322;9.432;2023-12-22T09:55:02;1.90;;;0.98;;
77362;SDS011;66428;47.322;9.432;2023-12-22T09:57:30;1.13;;;0.52;;
77362;SDS011;66428;47.322;9.432;2023-12-22T09:59:59;2.08;;;1.00;;
77362;SDS011;66428;47.322;9.432;2023-12-22T10:02:30;2.50;;;1.38;;
77362;SDS011;66428;47.322;9.432;2023-12-22T10:05:01;2.67;;;1.30;;
77362;SDS011;66428;47.322;9.432;2023-12-22T10:07:30;1.48;;;0.70;;
77362;SDS011;66428;47.322;9.432;2023-12-22T10:10:00;4.15;;;1.25;;
77362;SDS011;66428;47.322;9.432;2023-12-22T10:12:29;5.57;;;1.48;;
77362;SDS011;66428;47.322;9.432;2023-12-22T10:14:59;1.98;;;0.88;;
77362;SDS011;66428;47.322;9.432;2023-12-22T10:17:30;3.45;;;0.68;;
77362;SDS011;66428;47.322;9.432;2023-12-22T10:19:58;2.35;;;0.77;;
77362;SDS011;66428;47.322;9.432;2023-12-22T10:22:26;2.05;;;0.80;;
77362;SDS011;66428;47.322;9.432;2023-12-22T10:24:53;1.90;;;0.80;;
77362;SDS011;66428;47.322;9.432;2023-12-22T10:27:21;3.28;;;1.13;;
77362;SDS011;66428;47.322;9.432;2023-12-22T10:29:49;5.30;;;0.95;;
77362;SDS011;66428;47.322;9.432;2023-12-22T10:32:19;4.00;;;1.27;;
77362;SDS011;66428;47.322;9.432;2023-12-22T10:34:51;4.45;;;1.13;;
77362;SDS011;66428;47.322;9.432;2023-12-22T10:37:19;2.22;;;1.38;;
77362;SDS011;66428;47.322;9.432;2023-12-22T10:39:51;1.85;;;1.00;;
77362;SDS011;66428;47.322;9.432;2023-12-22T10:42:19;2.85;;;1.05;;
77362;SDS011;66428;47.322;9.432;2023-12-22T10:44:47;1.48;;;0.90;;
77362;SDS011;66428;47.322;9.432;2023-12-22T10:47:20;4.97;;;1.20;;
77362;SDS011;66428;47.322;9.432;2023-12-22T10:49:48;4.82;;;1.67;;
77362;SDS011;66428;47.322;9.432;2023-12-22T10:52:16;1.95;;;0.98;;
77362;SDS011;66428;47.322;9.432;2023-12-22T10:54:48;1.27;;;0.68;;
77362;SDS011;66428;47.322;9.432;2023-12-22T10:57:17;2.58;;;0.88;;
77362;SDS011;66428;47.322;9.432;2023-12-22T10:59:47;0.77;;;0.57;;
77362;SDS011;66428;47.322;9.432;2023-12-22T11:02:18;1.55;;;0.90;;
77362;SDS011;66428;47.322;9.432;2023-12-22T11:04:52;2.35;;;1.35;;
77362;SDS011;66428;47.322;9.432;2023-12-22T11:07:26;6.72;;;1.05;;
77362;SDS011;66428;47.322;9.432;2023-12-22T11:09:56;5.50;;;2.42;;
77362;SDS011;66428;47.322;9.432;2023-12-22T11:12:24;1.85;;;1.48;;
77362;SDS011;66428;47.322;9.432;2023-12-22T11:14:53;3.78;;;1.35;;
77362;SDS011;66428;47.322;9.432;2023-12-22T11:17:21;0.93;;;0.60;;
77362;SDS011;66428;47.322;9.432;2023-12-22T11:19:50;2.70;;;0.90;;
77362;SDS011;66428;47.322;9.432;2023-12-22T11:22:20;5.40;;;1.15;;
77362;SDS011;66428;47.322;9.432;2023-12-22T11:24:49;2.50;;;0.70;;
77362;SDS011;66428;47.322;9.432;2023-12-22T11:27:17;0.57;;;0.40;;
77362;SDS011;66428;47.322;9.432;2023-12-22T11:29:48;1.05;;;0.60;;
77362;SDS011;66428;47.322;9.432;2023-12-22T11:32:17;0.22;;;0.17;;
77362;SDS011;66428;47.322;9.432;2023-12-22T11:34:45;0.82;;;0.40;;
77362;SDS011;66428;47.322;9.432;2023-12-22T11:37:16;0.82;;;0.57;;
77362;SDS011;66428;47.322;9.432;2023-12-22T11:39:46;2.58;;;0.90;;
77362;SDS011;66428;47.322;9.432;2023-12-22T11:42:16;1.67;;;1.02;;
77362;SDS011;66428;47.322;9.432;2023-12-22T11:44:44;0.88;;;0.43;;
77362;SDS011;66428;47.322;9.432;2023-12-22T11:47:12;0.55;;;0.38;;
77362;SDS011;66428;47.322;9.432;2023-12-22T11:49:41;0.30;;;0.30;;
77362;SDS011;66428;47.322;9.432;2023-12-22T11:52:09;0.45;;;0.30;;
77362;SDS011;66428;47.322;9.432;2023-12-22T11:54:50;0.10;;;0.10;;
77362;SDS011;66428;47.322;9.432;2023-12-22T11:57:33;1.00;;;0.52;;
77362;SDS011;66428;47.322;9.432;2023-12-22T12:00:02;0.60;;;0.47;;
77362;SDS011;66428;47.322;9.432;2023-12-22T12:02:38;1.73;;;0.60;;
77362;SDS011;66428;47.322;9.432;2023-12-22T12:05:09;0.35;;;0.30;;
77362;SDS011;66428;47.322;9.432;2023-12-22T12:07:41;0.52;;;0.30;;
77362;SDS011;66428;47.322;9.432;2023-12-22T12:10:09;0.30;;;0.30;;
77362;SDS011;66428;47.322;9.432;2023-12-22T12:12:41;0.25;;;0.25;;
77362;SDS011;66428;47.322;9.432;2023-12-22T12:15:12;0.80;;;0.43;;
77362;SDS011;66428;47.322;9.432;2023-12-22T12:17:41;0.47;;;0.40;;
77362;SDS011;66428;47.322;9.432;2023-12-22T12:20:09;0.38;;;0.22;;
77362;SDS011;66428;47.322;9.432;2023-12-22T12:22:38;0.98;;;0.40;;
77362;SDS011;66428;47.322;9.432;2023-12-22T12:25:07;0.63;;;0.32;;
77362;SDS011;66428;47.322;9.432;2023-12-22T12:27:48;0.40;;;0.40;;
77362;SDS011;66428;47.322;9.432;2023-12-22T12:30:16;0.38;;;0.30;;
77362;SDS011;66428;47.322;9.432;2023-12-22T12:32:46;0.90;;;0.60;;
77362;SDS011;66428;47.322;9.432;2023-12-22T12:35:16;1.25;;;0.60;;
77362;SDS011;66428;47.322;9.432;2023-12-22T12:37:46;3.83;;;1.10;;
77362;SDS011;66428;47.322;9.432;2023-12-22T12:40:14;2.05;;;0.63;;
77362;SDS011;66428;47.322;9.432;2023-12-22T12:42:44;3.10;;;1.10;;
77362;SDS011;66428;47.322;9.432;2023-12-22T12:45:13;0.50;;;0.38;;
77362;SDS011;66428;47.322;9.432;2023-12-22T12:47:41;0.40;;;0.30;;
77362;SDS011;66428;47.322;9.432;2023-12-22T12:50:09;0.17;;;0.15;;
77362;SDS011;66428;47.322;9.432;2023-12-22T12:52:38;0.32;;;0.30;;
77362;SDS011;66428;47.322;9.432;2023-12-22T12:55:08;0.68;;;0.45;;
77362;SDS011;66428;47.322;9.432;2023-12-22T12:57:36;0.20;;;0.20;;
77362;SDS011;66428;47.322;9.432;2023-12-22T13:00:05;1.00;;;0.50;;
77362;SDS011;66428;47.322;9.432;2023-12-22T13:02:37;2.00;;;0.70;;
77362;SDS011;66428;47.322;9.432;2023-12-22T13:05:05;6.00;;;2.20;;
77362;SDS011;66428;47.322;9.432;2023-12-22T13:07:39;3.03;;;1.15;;
77362;SDS011;66428;47.322;9.432;2023-12-22T13:10:19;1.70;;;0.75;;
77362;SDS011;66428;47.322;9.432;2023-12-22T13:12:46;5.40;;;1.95;;
77362;SDS011;66428;47.322;9.432;2023-12-22T13:15:16;1.40;;;0.95;;
77362;SDS011;66428;47.322;9.432;2023-12-22T13:17:45;2.00;;;0.85;;
77362;SDS011;66428;47.322;9.432;2023-12-22T13:20:14;1.50;;;0.65;;
77362;SDS011;66428;47.322;9.432;2023-12-22T13:22:44;0.80;;;0.50;;
77362;SDS011;66428;47.322;9.432;2023-12-22T13:25:12;0.43;;;0.30;;
77362;SDS011;66428;47.322;9.432;2023-12-22T13:27:45;0.40;;;0.30;;
77362;SDS011;66428;47.322;9.432;2023-12-22T13:30:31;1.55;;;0.43;;
77362;SDS011;66428;47.322;9.432;2023-12-22T13:33:03;0.40;;;0.30;;
77362;SDS011;66428;47.322;9.432;2023-12-22T13:35:31;0.85;;;0.40;;
77362;SDS011;66428;47.322;9.432;2023-12-22T13:38:06;1.23;;;0.52;;
77362;SDS011;66428;47.322;9.432;2023-12-22T13:40:34;0.65;;;0.40;;
77362;SDS011;66428;47.322;9.432;2023-12-22T13:43:02;0.55;;;0.35;;
77362;SDS011;66428;47.322;9.432;2023-12-22T13:45:30;0.22;;;0.22;;
77362;SDS011;66428;47.322;9.432;2023-12-22T13:47:58;0.35;;;0.32;;
77362;SDS011;66428;47.322;9.432;2023-12-22T13:50:30;0.90;;;0.20;;
77362;SDS011;66428;47.322;9.432;2023-12-22T13:53:07;0.40;;;0.30;;
77362;SDS011;66428;47.322;9.432;2023-12-22T13:55:35;0.80;;;0.47;;
77362;SDS011;66428;47.322;9.432;2023-12-22T13:58:04;0.93;;;0.40;;
77362;SDS011;66428;47.322;9.432;2023-12-22T14:00:32;0.20;;;0.20;;
77362;SDS011;66428;47.322;9.432;2023-12-22T14:03:03;0.80;;;0.50;;
77362;SDS011;66428;47.322;9.432;2023-12-22T14:05:35;0.30;;;0.30;;
77362;SDS011;66428;47.322;9.432;2023-12-22T14:08:03;1.00;;;0.60;;
77362;SDS011;66428;47.322;9.432;2023-12-22T14:10:33;0.20;;;0.20;;
77362;SDS011;66428;47.322;9.432;2023-12-22T14:13:01;1.48;;;0.75;;
77362;SDS011;66428;47.322;9.432;2023-12-22T14:15:29;0.73;;;0.40;;
77362;SDS011;66428;47.322;9.432;2023-12-22T14:18:09;1.20;;;0.80;;
77362;SDS011;66428;47.322;9.432;2023-12-22T14:20:39;0.30;;;0.30;;
77362;SDS011;66428;47.322;9.432;2023-12-22T14:23:10;0.70;;;0.20;;
77362;SDS011;66428;47.322;9.432;2023-12-22T14:25:43;0.40;;;0.40;;
77362;SDS011;66428;47.322;9.432;2023-12-22T14:28:14;0.25;;;0.20;;
77362;SDS011;66428;47.322;9.432;2023-12-22T14:30:41;1.17;;;0.40;;
77362;SDS011;66428;47.322;9.432;2023-12-22T14:33:10;0.20;;;0.20;;
77362;SDS011;66428;47.322;9.432;2023-12-22T14:35:39;1.05;;;0.50;;
77362;SDS011;66428;47.322;9.432;2023-12-22T14:38:09;0.40;;;0.40;;
77362;SDS011;66428;47.322;9.432;2023-12-22T14:40:37;0.80;;;0.50;;
77362;SDS011;66428;47.322;9.432;2023-12-22T14:43:05;0.82;;;0.52;;
77362;SDS011;66428;47.322;9.432;2023-12-22T14:45:35;1.52;;;0.75;;
77362;SDS011;66428;47.322;9.432;2023-12-22T14:48:05;0.63;;;0.50;;
77362;SDS011;66428;47.322;9.432;2023-12-22T14:50:35;0.22;;;0.22;;
77362;SDS011;66428;47.322;9.432;2023-12-22T14:53:06;0.30;;;0.20;;
77362;SDS011;66428;47.322;9.432;2023-12-22T14:55:38;0.38;;;0.30;;
77362;SDS011;66428;47.322;9.432;2023-12-22T14:58:06;0.10;;;0.10;;
77362;SDS011;66428;47.322;9.432;2023-12-22T15:00:38;0.20;;;0.20;;
77362;SDS011;66428;47.322;9.432;2023-12-22T15:03:09;0.40;;;0.30;;
77362;SDS011;66428;47.322;9.432;2023-12-22T15:05:36;0.20;;;0.20;;